sensor_id;sensor_type;location;lat;lon;timestamp;P1;P2;P0
60058;PMS7003;45932;50.658;3.022;2022-12-15T00:01:56;91.33;81.00;51.00
60058;PMS7003;45932;50.658;3.022;2022-12-15T00:04:40;92.00;81.00;52.00
60058;PMS7003;45932;50.658;3.022;2022-12-15T00:07:24;90.00;83.00;55.00
60058;PMS7003;45932;50.658;3.022;2022-12-15T00:10:08;90.00;82.67;57.00
60058;PMS7003;45932;50.658;3.022;2022-12-15T00:12:51;96.67;84.67;56.33
60058;PMS7003;45932;50.658;3.022;2022-12-15T00:15:35;95.33;84.67;55.67
60058;PMS7003;45932;50.658;3.022;2022-12-15T00:18:19;100.33;87.67;58.00
60058;PMS7003;45932;50.658;3.022;2022-12-15T00:21:03;95.33;84.33;54.67
60058;PMS7003;45932;50.658;3.022;2022-12-15T00:23:47;97.67;82.33;57.33
60058;PMS7003;45932;50.658;3.022;2022-12-15T00:26:31;95.00;82.67;56.33
60058;PMS7003;45932;50.658;3.022;2022-12-15T00:29:15;96.33;84.00;56.00
60058;PMS7003;45932;50.658;3.022;2022-12-15T00:31:59;90.00;77.00;53.33
60058;PMS7003;45932;50.658;3.022;2022-12-15T00:34:43;98.00;85.67;57.00
60058;PMS7003;45932;50.658;3.022;2022-12-15T00:37:27;103.00;94.33;57.67
60058;PMS7003;45932;50.658;3.022;2022-12-15T00:40:11;92.00;81.33;58.33
60058;PMS7003;45932;50.658;3.022;2022-12-15T00:42:36;101.00;93.00;59.33
60058;PMS7003;45932;50.658;3.022;2022-12-15T00:45:02;81.67;66.33;40.00
60058;PMS7003;45932;50.658;3.022;2022-12-15T00:47:30;92.67;79.33;51.00
60058;PMS7003;45932;50.658;3.022;2022-12-15T00:49:56;101.67;85.00;56.00
60058;PMS7003;45932;50.658;3.022;2022-12-15T00:52:40;93.33;83.67;54.67
60058;PMS7003;45932;50.658;3.022;2022-12-15T00:55:24;97.00;87.33;55.67
60058;PMS7003;45932;50.658;3.022;2022-12-15T00:58:08;100.00;87.00;56.67
60058;PMS7003;45932;50.658;3.022;2022-12-15T01:00:52;96.67;90.33;57.67
60058;PMS7003;45932;50.658;3.022;2022-12-15T01:03:36;90.00;81.33;52.67
60058;PMS7003;45932;50.658;3.022;2022-12-15T01:06:19;100.00;89.33;57.33
60058;PMS7003;45932;50.658;3.022;2022-12-15T01:09:05;90.00;84.67;58.67
60058;PMS7003;45932;50.658;3.022;2022-12-15T01:11:50;93.67;83.00;51.00
60058;PMS7003;45932;50.658;3.022;2022-12-15T01:14:35;91.00;76.00;55.00
60058;PMS7003;45932;50.658;3.022;2022-12-15T01:17:19;92.33;83.33;56.00
60058;PMS7003;45932;50.658;3.022;2022-12-15T01:20:03;90.00;83.00;51.00
60058;PMS7003;45932;50.658;3.022;2022-12-15T01:22:48;91.67;84.33;51.67
60058;PMS7003;45932;50.658;3.022;2022-12-15T01:25:16;94.33;83.33;56.00
60058;PMS7003;45932;50.658;3.022;2022-12-15T01:27:43;96.00;87.00;55.67
60058;PMS7003;45932;50.658;3.022;2022-12-15T01:30:09;91.33;81.33;54.00
60058;PMS7003;45932;50.658;3.022;2022-12-15T01:32:36;92.00;84.67;55.00
60058;PMS7003;45932;50.658;3.022;2022-12-15T01:35:03;98.00;88.00;57.00
60058;PMS7003;45932;50.658;3.022;2022-12-15T01:37:29;90.33;78.00;51.00
60058;PMS7003;45932;50.658;3.022;2022-12-15T01:39:54;90.33;83.33;57.33
60058;PMS7003;45932;50.658;3.022;2022-12-15T01:42:38;96.67;86.33;52.33
60058;PMS7003;45932;50.658;3.022;2022-12-15T01:45:32;93.00;86.33;56.33
60058;PMS7003;45932;50.658;3.022;2022-12-15T01:48:09;91.00;79.67;55.00
60058;PMS7003;45932;50.658;3.022;2022-12-15T01:50:45;95.00;83.00;55.00
60058;PMS7003;45932;50.658;3.022;2022-12-15T01:53:15;89.67;78.00;53.00
60058;PMS7003;45932;50.658;3.022;2022-12-15T01:55:42;98.00;86.33;57.00
60058;PMS7003;45932;50.658;3.022;2022-12-15T01:58:10;92.33;83.00;54.00
60058;PMS7003;45932;50.658;3.022;2022-12-15T02:00:38;92.00;83.67;55.33
60058;PMS7003;45932;50.658;3.022;2022-12-15T02:03:04;89.00;77.67;54.33
60058;PMS7003;45932;50.658;3.022;2022-12-15T02:05:30;96.00;82.00;53.33
60058;PMS7003;45932;50.658;3.022;2022-12-15T02:07:58;91.67;83.00;54.00
60058;PMS7003;45932;50.658;3.022;2022-12-15T02:10:26;85.67;75.33;49.00
60058;PMS7003;45932;50.658;3.022;2022-12-15T02:13:00;91.33;84.00;52.00
60058;PMS7003;45932;50.658;3.022;2022-12-15T02:21:16;88.00;79.33;55.33
60058;PMS7003;45932;50.658;3.022;2022-12-15T02:32:14;90.67;79.00;51.00
60058;PMS7003;45932;50.658;3.022;2022-12-15T02:34:50;91.33;83.67;53.33
60058;PMS7003;45932;50.658;3.022;2022-12-15T02:37:23;95.00;83.33;56.33
60058;PMS7003;45932;50.658;3.022;2022-12-15T02:39:55;97.33;85.00;57.00
60058;PMS7003;45932;50.658;3.022;2022-12-15T02:42:20;99.00;88.67;57.00
60058;PMS7003;45932;50.658;3.022;2022-12-15T02:44:58;93.67;86.33;60.00
60058;PMS7003;45932;50.658;3.022;2022-12-15T02:47:40;102.00;94.33;58.00
60058;PMS7003;45932;50.658;3.022;2022-12-15T02:52:53;108.67;99.33;65.00
60058;PMS7003;45932;50.658;3.022;2022-12-15T02:58:35;106.67;95.33;64.00
60058;PMS7003;45932;50.658;3.022;2022-12-15T03:04:04;122.33;103.00;68.67
60058;PMS7003;45932;50.658;3.022;2022-12-15T03:06:32;122.00;104.33;69.33
60058;PMS7003;45932;50.658;3.022;2022-12-15T03:08:58;120.50;103.75;68.25
60058;PMS7003;45932;50.658;3.022;2022-12-15T03:11:23;120.75;106.00;72.00
60058;PMS7003;45932;50.658;3.022;2022-12-15T03:13:48;124.67;106.33;71.67
60058;PMS7003;45932;50.658;3.022;2022-12-15T03:16:14;109.33;99.33;67.67
60058;PMS7003;45932;50.658;3.022;2022-12-15T03:18:40;115.33;102.67;65.67
60058;PMS7003;45932;50.658;3.022;2022-12-15T03:21:05;117.33;101.00;67.00
60058;PMS7003;45932;50.658;3.022;2022-12-15T03:23:30;118.33;106.67;68.00
60058;PMS7003;45932;50.658;3.022;2022-12-15T03:25:56;108.67;97.00;63.67
60058;PMS7003;45932;50.658;3.022;2022-12-15T03:28:21;121.67;105.33;68.33
60058;PMS7003;45932;50.658;3.022;2022-12-15T03:30:47;109.33;99.67;61.67
60058;PMS7003;45932;50.658;3.022;2022-12-15T03:33:14;110.33;99.33;66.33
60058;PMS7003;45932;50.658;3.022;2022-12-15T03:35:39;116.67;104.00;65.00
60058;PMS7003;45932;50.658;3.022;2022-12-15T03:38:04;112.67;97.67;61.00
60058;PMS7003;45932;50.658;3.022;2022-12-15T03:40:30;115.33;104.33;65.00
60058;PMS7003;45932;50.658;3.022;2022-12-15T03:42:55;115.00;103.67;65.67
60058;PMS7003;45932;50.658;3.022;2022-12-15T03:45:23;114.67;104.33;67.67
60058;PMS7003;45932;50.658;3.022;2022-12-15T03:47:50;111.00;99.00;64.67
60058;PMS7003;45932;50.658;3.022;2022-12-15T03:50:17;116.67;100.67;66.67
60058;PMS7003;45932;50.658;3.022;2022-12-15T03:52:50;119.33;105.67;63.33
60058;PMS7003;45932;50.658;3.022;2022-12-15T03:55:17;98.67;88.33;62.00
60058;PMS7003;45932;50.658;3.022;2022-12-15T03:57:43;98.67;90.33;61.67
60058;PMS7003;45932;50.658;3.022;2022-12-15T04:00:09;113.33;100.00;61.00
60058;PMS7003;45932;50.658;3.022;2022-12-15T04:02:38;101.00;92.33;64.00
60058;PMS7003;45932;50.658;3.022;2022-12-15T04:05:04;108.67;99.33;65.00
60058;PMS7003;45932;50.658;3.022;2022-12-15T04:07:30;116.00;100.00;64.00
60058;PMS7003;45932;50.658;3.022;2022-12-15T04:09:55;107.67;98.00;62.00
60058;PMS7003;45932;50.658;3.022;2022-12-15T04:12:20;107.33;93.67;62.67
60058;PMS7003;45932;50.658;3.022;2022-12-15T04:14:46;102.67;91.00;61.67
60058;PMS7003;45932;50.658;3.022;2022-12-15T04:17:11;103.33;92.33;64.00
60058;PMS7003;45932;50.658;3.022;2022-12-15T04:19:37;109.33;100.00;64.67
60058;PMS7003;45932;50.658;3.022;2022-12-15T04:22:21;95.67;88.67;51.00
60058;PMS7003;45932;50.658;3.022;2022-12-15T04:24:47;99.00;90.67;61.33
60058;PMS7003;45932;50.658;3.022;2022-12-15T04:27:31;104.67;95.67;61.00
60058;PMS7003;45932;50.658;3.022;2022-12-15T04:30:16;105.33;95.33;65.00
60058;PMS7003;45932;50.658;3.022;2022-12-15T04:33:00;97.67;89.67;60.00
60058;PMS7003;45932;50.658;3.022;2022-12-15T04:35:45;106.00;96.67;65.00
60058;PMS7003;45932;50.658;3.022;2022-12-15T04:38:31;101.67;95.67;60.67
60058;PMS7003;45932;50.658;3.022;2022-12-15T04:41:14;105.00;94.67;64.00
60058;PMS7003;45932;50.658;3.022;2022-12-15T04:44:02;113.00;97.33;62.33
60058;PMS7003;45932;50.658;3.022;2022-12-15T04:46:46;103.33;95.00;62.00
60058;PMS7003;45932;50.658;3.022;2022-12-15T04:49:30;112.33;101.33;62.00
60058;PMS7003;45932;50.658;3.022;2022-12-15T04:52:14;104.67;94.33;61.33
60058;PMS7003;45932;50.658;3.022;2022-12-15T04:54:58;106.33;94.67;58.00
60058;PMS7003;45932;50.658;3.022;2022-12-15T04:57:42;105.67;95.67;60.33
60058;PMS7003;45932;50.658;3.022;2022-12-15T05:00:26;101.00;94.33;59.00
60058;PMS7003;45932;50.658;3.022;2022-12-15T05:03:10;99.33;94.33;60.33
60058;PMS7003;45932;50.658;3.022;2022-12-15T05:05:54;110.00;95.33;61.00
60058;PMS7003;45932;50.658;3.022;2022-12-15T05:08:39;102.67;92.67;59.67
60058;PMS7003;45932;50.658;3.022;2022-12-15T05:11:23;107.00;95.00;58.67
60058;PMS7003;45932;50.658;3.022;2022-12-15T05:14:07;95.00;82.00;58.33
60058;PMS7003;45932;50.658;3.022;2022-12-15T05:16:51;104.33;94.00;63.33
60058;PMS7003;45932;50.658;3.022;2022-12-15T05:19:35;107.33;92.67;60.00
60058;PMS7003;45932;50.658;3.022;2022-12-15T05:22:18;100.67;89.00;57.67
60058;PMS7003;45932;50.658;3.022;2022-12-15T05:25:02;103.33;94.67;57.00
60058;PMS7003;45932;50.658;3.022;2022-12-15T05:27:47;101.33;90.33;56.00
60058;PMS7003;45932;50.658;3.022;2022-12-15T05:30:31;103.67;93.33;61.00
60058;PMS7003;45932;50.658;3.022;2022-12-15T05:33:14;104.67;93.33;59.33
60058;PMS7003;45932;50.658;3.022;2022-12-15T05:35:40;98.00;84.67;55.67
60058;PMS7003;45932;50.658;3.022;2022-12-15T05:38:05;108.00;96.67;61.33
60058;PMS7003;45932;50.658;3.022;2022-12-15T05:40:30;104.67;91.67;60.00
60058;PMS7003;45932;50.658;3.022;2022-12-15T05:42:59;89.67;83.00;61.33
60058;PMS7003;45932;50.658;3.022;2022-12-15T05:45:25;103.67;91.67;58.67
60058;PMS7003;45932;50.658;3.022;2022-12-15T05:47:52;104.67;95.33;62.00
60058;PMS7003;45932;50.658;3.022;2022-12-15T05:50:18;94.00;89.00;57.00
60058;PMS7003;45932;50.658;3.022;2022-12-15T05:52:44;102.00;97.00;61.33
60058;PMS7003;45932;50.658;3.022;2022-12-15T05:55:10;96.67;89.00;56.00
60058;PMS7003;45932;50.658;3.022;2022-12-15T05:57:35;93.33;88.00;55.00
60058;PMS7003;45932;50.658;3.022;2022-12-15T06:00:01;94.33;85.67;58.00
60058;PMS7003;45932;50.658;3.022;2022-12-15T06:02:27;102.33;96.33;61.67
60058;PMS7003;45932;50.658;3.022;2022-12-15T06:04:52;101.33;93.00;61.67
60058;PMS7003;45932;50.658;3.022;2022-12-15T06:07:18;104.33;93.33;61.00
60058;PMS7003;45932;50.658;3.022;2022-12-15T06:09:43;99.00;88.33;61.00
60058;PMS7003;45932;50.658;3.022;2022-12-15T06:12:09;102.67;95.00;61.67
60058;PMS7003;45932;50.658;3.022;2022-12-15T06:14:34;104.00;92.00;57.33
60058;PMS7003;45932;50.658;3.022;2022-12-15T06:17:00;100.67;92.67;61.67
60058;PMS7003;45932;50.658;3.022;2022-12-15T06:19:25;103.33;97.33;63.00
60058;PMS7003;45932;50.658;3.022;2022-12-15T06:21:51;110.00;98.33;63.00
60058;PMS7003;45932;50.658;3.022;2022-12-15T06:24:16;97.33;84.33;56.00
60058;PMS7003;45932;50.658;3.022;2022-12-15T06:26:41;111.67;97.67;62.33
60058;PMS7003;45932;50.658;3.022;2022-12-15T06:29:07;108.67;94.67;58.67
60058;PMS7003;45932;50.658;3.022;2022-12-15T06:31:35;108.67;102.00;62.67
60058;PMS7003;45932;50.658;3.022;2022-12-15T06:34:05;98.33;85.67;57.67
60058;PMS7003;45932;50.658;3.022;2022-12-15T06:36:32;103.00;92.00;57.33
60058;PMS7003;45932;50.658;3.022;2022-12-15T06:38:58;102.67;92.33;58.00
60058;PMS7003;45932;50.658;3.022;2022-12-15T06:41:25;105.67;95.33;62.67
60058;PMS7003;45932;50.658;3.022;2022-12-15T06:43:52;89.33;82.33;57.00
60058;PMS7003;45932;50.658;3.022;2022-12-15T06:46:20;108.67;95.00;61.00
60058;PMS7003;45932;50.658;3.022;2022-12-15T06:48:45;106.00;94.33;59.67
60058;PMS7003;45932;50.658;3.022;2022-12-15T06:51:12;114.33;99.33;62.00
60058;PMS7003;45932;50.658;3.022;2022-12-15T06:53:39;103.00;93.67;60.67
60058;PMS7003;45932;50.658;3.022;2022-12-15T06:56:06;106.00;95.00;60.00
60058;PMS7003;45932;50.658;3.022;2022-12-15T06:58:36;100.00;91.00;57.67
60058;PMS7003;45932;50.658;3.022;2022-12-15T07:01:05;106.33;91.33;62.67
60058;PMS7003;45932;50.658;3.022;2022-12-15T07:03:32;100.33;92.00;60.00
60058;PMS7003;45932;50.658;3.022;2022-12-15T07:06:01;105.67;92.33;59.00
60058;PMS7003;45932;50.658;3.022;2022-12-15T07:08:30;90.00;81.67;58.00
60058;PMS7003;45932;50.658;3.022;2022-12-15T07:10:55;106.00;96.33;62.00
60058;PMS7003;45932;50.658;3.022;2022-12-15T07:13:21;109.67;93.67;59.67
60058;PMS7003;45932;50.658;3.022;2022-12-15T07:15:46;94.00;90.00;57.67
60058;PMS7003;45932;50.658;3.022;2022-12-15T07:18:14;102.00;88.67;55.00
60058;PMS7003;45932;50.658;3.022;2022-12-15T07:20:39;96.00;87.67;57.33
60058;PMS7003;45932;50.658;3.022;2022-12-15T07:23:04;88.67;75.67;50.67
60058;PMS7003;45932;50.658;3.022;2022-12-15T07:25:36;100.67;92.00;60.00
60058;PMS7003;45932;50.658;3.022;2022-12-15T07:28:02;101.00;88.00;60.00
60058;PMS7003;45932;50.658;3.022;2022-12-15T07:30:27;101.67;92.00;59.00
60058;PMS7003;45932;50.658;3.022;2022-12-15T07:32:53;113.33;98.67;66.33
60058;PMS7003;45932;50.658;3.022;2022-12-15T07:35:18;128.25;113.25;70.25
60058;PMS7003;45932;50.658;3.022;2022-12-15T07:37:44;128.00;110.50;71.75
60058;PMS7003;45932;50.658;3.022;2022-12-15T07:40:09;120.75;108.00;71.00
60058;PMS7003;45932;50.658;3.022;2022-12-15T07:42:35;125.50;111.75;70.50
60058;PMS7003;45932;50.658;3.022;2022-12-15T07:45:01;123.75;111.00;69.75
60058;PMS7003;45932;50.658;3.022;2022-12-15T07:47:27;113.67;103.00;68.33
60058;PMS7003;45932;50.658;3.022;2022-12-15T07:49:53;105.67;94.33;62.67
60058;PMS7003;45932;50.658;3.022;2022-12-15T07:52:19;100.00;91.00;59.33
60058;PMS7003;45932;50.658;3.022;2022-12-15T07:54:44;108.67;96.67;64.33
60058;PMS7003;45932;50.658;3.022;2022-12-15T07:57:10;101.67;94.00;63.67
60058;PMS7003;45932;50.658;3.022;2022-12-15T07:59:35;102.67;92.67;60.67
60058;PMS7003;45932;50.658;3.022;2022-12-15T08:02:01;104.67;86.00;56.67
60058;PMS7003;45932;50.658;3.022;2022-12-15T08:04:30;105.67;95.33;59.67
60058;PMS7003;45932;50.658;3.022;2022-12-15T08:06:56;103.33;91.67;61.33
60058;PMS7003;45932;50.658;3.022;2022-12-15T08:09:22;100.00;89.33;59.00
60058;PMS7003;45932;50.658;3.022;2022-12-15T08:11:48;93.33;86.00;57.00
60058;PMS7003;45932;50.658;3.022;2022-12-15T08:14:14;93.67;87.00;57.00
60058;PMS7003;45932;50.658;3.022;2022-12-15T08:16:40;91.67;86.33;53.33
60058;PMS7003;45932;50.658;3.022;2022-12-15T08:19:06;99.67;89.00;58.00
60058;PMS7003;45932;50.658;3.022;2022-12-15T08:21:34;98.67;84.33;53.33
60058;PMS7003;45932;50.658;3.022;2022-12-15T08:24:00;97.33;91.67;58.00
60058;PMS7003;45932;50.658;3.022;2022-12-15T08:26:25;105.67;92.67;57.67
60058;PMS7003;45932;50.658;3.022;2022-12-15T08:28:51;90.33;83.33;51.33
60058;PMS7003;45932;50.658;3.022;2022-12-15T08:31:18;95.00;86.00;51.67
60058;PMS7003;45932;50.658;3.022;2022-12-15T08:33:45;96.67;84.33;53.67
60058;PMS7003;45932;50.658;3.022;2022-12-15T08:36:12;91.00;82.00;55.00
60058;PMS7003;45932;50.658;3.022;2022-12-15T08:38:40;88.67;84.33;55.67
60058;PMS7003;45932;50.658;3.022;2022-12-15T08:41:11;94.67;85.67;56.33
60058;PMS7003;45932;50.658;3.022;2022-12-15T08:43:41;88.67;81.67;55.00
60058;PMS7003;45932;50.658;3.022;2022-12-15T08:46:07;97.00;85.00;55.33
60058;PMS7003;45932;50.658;3.022;2022-12-15T08:48:33;98.67;84.67;55.00
60058;PMS7003;45932;50.658;3.022;2022-12-15T08:50:59;90.00;80.67;53.00
60058;PMS7003;45932;50.658;3.022;2022-12-15T08:53:25;94.33;85.33;56.00
60058;PMS7003;45932;50.658;3.022;2022-12-15T08:55:51;96.33;84.33;55.33
60058;PMS7003;45932;50.658;3.022;2022-12-15T08:58:16;89.33;75.33;47.67
60058;PMS7003;45932;50.658;3.022;2022-12-15T09:00:42;93.67;83.00;53.00
60058;PMS7003;45932;50.658;3.022;2022-12-15T09:03:07;88.00;77.67;53.00
60058;PMS7003;45932;50.658;3.022;2022-12-15T09:05:35;94.00;87.67;56.00
60058;PMS7003;45932;50.658;3.022;2022-12-15T09:08:01;89.33;76.00;47.00
60058;PMS7003;45932;50.658;3.022;2022-12-15T09:10:27;92.67;84.67;55.33
60058;PMS7003;45932;50.658;3.022;2022-12-15T09:12:53;94.33;82.33;54.00
60058;PMS7003;45932;50.658;3.022;2022-12-15T09:15:18;97.67;89.67;58.33
60058;PMS7003;45932;50.658;3.022;2022-12-15T09:17:44;92.67;79.33;49.00
60058;PMS7003;45932;50.658;3.022;2022-12-15T09:20:10;95.33;87.00;56.67
60058;PMS7003;45932;50.658;3.022;2022-12-15T09:22:35;102.33;88.67;57.00
60058;PMS7003;45932;50.658;3.022;2022-12-15T09:25:02;101.33;89.00;58.33
60058;PMS7003;45932;50.658;3.022;2022-12-15T09:27:28;100.00;91.67;60.00
60058;PMS7003;45932;50.658;3.022;2022-12-15T09:29:54;80.67;70.67;59.00
60058;PMS7003;45932;50.658;3.022;2022-12-15T09:32:20;99.00;91.67;58.00
60058;PMS7003;45932;50.658;3.022;2022-12-15T09:34:45;101.67;92.33;60.00
60058;PMS7003;45932;50.658;3.022;2022-12-15T09:37:11;101.00;92.00;60.00
60058;PMS7003;45932;50.658;3.022;2022-12-15T09:39:37;104.67;92.67;60.00
60058;PMS7003;45932;50.658;3.022;2022-12-15T09:42:03;87.67;79.33;52.33
60058;PMS7003;45932;50.658;3.022;2022-12-15T09:44:29;111.00;93.33;58.67
60058;PMS7003;45932;50.658;3.022;2022-12-15T09:49:38;109.33;93.67;60.33
60058;PMS7003;45932;50.658;3.022;2022-12-15T09:52:27;102.33;86.33;58.33
60058;PMS7003;45932;50.658;3.022;2022-12-15T09:54:56;98.67;92.67;61.00
60058;PMS7003;45932;50.658;3.022;2022-12-15T10:00:18;91.33;79.33;49.67
60058;PMS7003;45932;50.658;3.022;2022-12-15T10:08:06;103.33;95.67;61.00
60058;PMS7003;45932;50.658;3.022;2022-12-15T10:10:45;99.00;89.00;60.67
60058;PMS7003;45932;50.658;3.022;2022-12-15T10:13:25;105.33;93.67;60.33
60058;PMS7003;45932;50.658;3.022;2022-12-15T10:16:20;111.33;101.67;69.00
60058;PMS7003;45932;50.658;3.022;2022-12-15T10:19:16;114.67;106.33;67.00
60058;PMS7003;45932;50.658;3.022;2022-12-15T10:21:48;122.00;107.67;68.33
60058;PMS7003;45932;50.658;3.022;2022-12-15T10:24:14;118.67;107.67;73.33
60058;PMS7003;45932;50.658;3.022;2022-12-15T10:26:40;120.67;107.67;72.33
60058;PMS7003;45932;50.658;3.022;2022-12-15T10:32:53;123.67;107.33;72.00
60058;PMS7003;45932;50.658;3.022;2022-12-15T10:34:55;93.00;75.00;39.00
60058;PMS7003;45932;50.658;3.022;2022-12-15T10:37:20;122.33;112.67;75.67
60058;PMS7003;45932;50.658;3.022;2022-12-15T10:39:47;128.67;116.00;76.00
60058;PMS7003;45932;50.658;3.022;2022-12-15T10:42:21;126.67;106.67;72.33
60058;PMS7003;45932;50.658;3.022;2022-12-15T10:44:49;128.00;111.67;71.00
60058;PMS7003;45932;50.658;3.022;2022-12-15T10:49:45;123.67;108.00;71.00
60058;PMS7003;45932;50.658;3.022;2022-12-15T10:52:15;120.67;111.33;73.67
60058;PMS7003;45932;50.658;3.022;2022-12-15T10:54:56;118.67;108.33;71.67
60058;PMS7003;45932;50.658;3.022;2022-12-15T10:57:23;95.33;86.00;60.33
60058;PMS7003;45932;50.658;3.022;2022-12-15T10:59:55;116.33;101.67;72.00
60058;PMS7003;45932;50.658;3.022;2022-12-15T11:02:43;111.00;100.67;69.67
60058;PMS7003;45932;50.658;3.022;2022-12-15T11:07:41;92.67;79.00;42.00
60058;PMS7003;45932;50.658;3.022;2022-12-15T11:10:37;102.67;91.00;62.00
60058;PMS7003;45932;50.658;3.022;2022-12-15T11:13:36;105.67;96.33;60.67
60058;PMS7003;45932;50.658;3.022;2022-12-15T11:16:18;93.67;87.33;58.67
60058;PMS7003;45932;50.658;3.022;2022-12-15T11:18:51;88.33;74.00;50.67
60058;PMS7003;45932;50.658;3.022;2022-12-15T11:21:21;90.33;78.67;53.00
60058;PMS7003;45932;50.658;3.022;2022-12-15T11:28:55;91.00;79.00;51.67
60058;PMS7003;45932;50.658;3.022;2022-12-15T11:33:55;90.67;78.33;53.00
60058;PMS7003;45932;50.658;3.022;2022-12-15T11:42:14;90.00;80.50;49.00
60058;PMS7003;45932;50.658;3.022;2022-12-15T11:50:58;88.75;75.75;52.25
60058;PMS7003;45932;50.658;3.022;2022-12-15T12:16:09;97.00;87.00;56.00
60058;PMS7003;45932;50.658;3.022;2022-12-15T12:21:42;91.50;77.50;52.75
60058;PMS7003;45932;50.658;3.022;2022-12-15T12:24:53;66.75;52.00;33.75
60058;PMS7003;45932;50.658;3.022;2022-12-15T12:27:22;43.00;36.25;27.25
60058;PMS7003;45932;50.658;3.022;2022-12-15T12:29:56;47.00;45.00;33.00
60058;PMS7003;45932;50.658;3.022;2022-12-15T12:32:35;51.50;44.50;31.50
60058;PMS7003;45932;50.658;3.022;2022-12-15T12:37:59;94.50;75.00;50.50
60058;PMS7003;45932;50.658;3.022;2022-12-15T12:42:58;55.50;45.50;33.00
60058;PMS7003;45932;50.658;3.022;2022-12-15T12:47:57;54.50;45.75;33.25
60058;PMS7003;45932;50.658;3.022;2022-12-15T12:50:27;73.50;57.75;39.75
60058;PMS7003;45932;50.658;3.022;2022-12-15T12:52:56;95.50;72.75;52.75
60058;PMS7003;45932;50.658;3.022;2022-12-15T12:55:37;65.00;48.50;33.25
60058;PMS7003;45932;50.658;3.022;2022-12-15T13:03:37;37.75;27.75;16.75
60058;PMS7003;45932;50.658;3.022;2022-12-15T13:06:18;67.00;47.50;33.00
60058;PMS7003;45932;50.658;3.022;2022-12-15T13:08:47;56.00;47.50;34.00
60058;PMS7003;45932;50.658;3.022;2022-12-15T13:14:12;46.50;39.00;30.00
60058;PMS7003;45932;50.658;3.022;2022-12-15T13:16:43;84.25;71.50;49.50
60058;PMS7003;45932;50.658;3.022;2022-12-15T13:19:11;90.00;77.50;49.50
60058;PMS7003;45932;50.658;3.022;2022-12-15T13:24:15;80.25;67.25;44.50
60058;PMS7003;45932;50.658;3.022;2022-12-15T13:26:46;55.25;48.50;35.00
60058;PMS7003;45932;50.658;3.022;2022-12-15T13:29:12;70.00;51.00;35.50
60058;PMS7003;45932;50.658;3.022;2022-12-15T13:31:45;103.67;89.67;64.67
60058;PMS7003;45932;50.658;3.022;2022-12-15T13:34:14;92.25;85.75;54.75
60058;PMS7003;45932;50.658;3.022;2022-12-15T13:36:46;94.67;84.67;58.33
60058;PMS7003;45932;50.658;3.022;2022-12-15T13:44:11;99.33;87.00;56.67
60058;PMS7003;45932;50.658;3.022;2022-12-15T13:46:39;56.25;51.50;39.25
60058;PMS7003;45932;50.658;3.022;2022-12-15T13:51:41;94.25;76.50;48.75
60058;PMS7003;45932;50.658;3.022;2022-12-15T13:54:12;87.75;75.75;48.75
60058;PMS7003;45932;50.658;3.022;2022-12-15T13:56:45;93.50;75.00;46.50
60058;PMS7003;45932;50.658;3.022;2022-12-15T14:01:49;88.75;71.75;48.00
60058;PMS7003;45932;50.658;3.022;2022-12-15T14:04:15;90.25;67.00;44.00
60058;PMS7003;45932;50.658;3.022;2022-12-15T14:06:59;86.50;77.75;50.00
60058;PMS7003;45932;50.658;3.022;2022-12-15T14:09:29;86.25;74.25;49.00
60058;PMS7003;45932;50.658;3.022;2022-12-15T14:11:58;87.25;77.00;50.50
60058;PMS7003;45932;50.658;3.022;2022-12-15T14:14:27;87.50;74.00;49.25
60058;PMS7003;45932;50.658;3.022;2022-12-15T14:16:56;89.00;77.25;50.50
60058;PMS7003;45932;50.658;3.022;2022-12-15T14:19:24;88.50;76.00;49.25
60058;PMS7003;45932;50.658;3.022;2022-12-15T14:21:54;85.25;74.25;48.75
60058;PMS7003;45932;50.658;3.022;2022-12-15T14:24:25;88.00;79.50;52.25
60058;PMS7003;45932;50.658;3.022;2022-12-15T14:26:53;85.00;69.25;45.00
60058;PMS7003;45932;50.658;3.022;2022-12-15T14:29:19;86.50;69.00;45.00
60058;PMS7003;45932;50.658;3.022;2022-12-15T14:31:46;89.00;75.25;49.25
60058;PMS7003;45932;50.658;3.022;2022-12-15T14:34:17;91.00;77.75;48.00
60058;PMS7003;45932;50.658;3.022;2022-12-15T14:36:48;90.50;79.75;48.75
60058;PMS7003;45932;50.658;3.022;2022-12-15T14:39:22;89.25;69.75;43.25
60058;PMS7003;45932;50.658;3.022;2022-12-15T14:42:22;86.25;74.25;47.00
60058;PMS7003;45932;50.658;3.022;2022-12-15T14:44:50;81.00;63.50;42.50
60058;PMS7003;45932;50.658;3.022;2022-12-15T14:47:18;86.50;69.50;46.25
60058;PMS7003;45932;50.658;3.022;2022-12-15T14:49:47;86.50;74.50;49.00
60058;PMS7003;45932;50.658;3.022;2022-12-15T14:58:01;85.00;67.00;46.50
60058;PMS7003;45932;50.658;3.022;2022-12-15T15:00:48;84.75;73.25;49.75
60058;PMS7003;45932;50.658;3.022;2022-12-15T15:05:50;91.50;78.25;52.00
60058;PMS7003;45932;50.658;3.022;2022-12-15T15:10:50;91.33;79.67;53.67
60058;PMS7003;45932;50.658;3.022;2022-12-15T15:13:19;90.00;77.00;53.00
60058;PMS7003;45932;50.658;3.022;2022-12-15T15:15:50;101.00;87.67;53.67
60058;PMS7003;45932;50.658;3.022;2022-12-15T15:18:24;96.33;89.67;55.67
60058;PMS7003;45932;50.658;3.022;2022-12-15T15:20:58;98.50;84.25;58.00
60058;PMS7003;45932;50.658;3.022;2022-12-15T15:23:27;94.00;86.33;52.67
60058;PMS7003;45932;50.658;3.022;2022-12-15T15:25:54;101.33;90.33;59.67
60058;PMS7003;45932;50.658;3.022;2022-12-15T15:28:25;92.00;82.00;57.00
60058;PMS7003;45932;50.658;3.022;2022-12-15T15:33:18;93.00;82.67;51.33
60058;PMS7003;45932;50.658;3.022;2022-12-15T15:35:45;107.33;92.00;57.33
60058;PMS7003;45932;50.658;3.022;2022-12-15T15:40:52;97.33;91.00;59.00
60058;PMS7003;45932;50.658;3.022;2022-12-15T15:43:18;95.00;84.00;54.00
60058;PMS7003;45932;50.658;3.022;2022-12-15T15:45:45;91.67;86.33;57.00
60058;PMS7003;45932;50.658;3.022;2022-12-15T15:48:17;96.00;83.67;55.67
60058;PMS7003;45932;50.658;3.022;2022-12-15T15:50:48;91.75;80.25;54.00
60058;PMS7003;45932;50.658;3.022;2022-12-15T15:53:15;94.33;85.00;56.00
60058;PMS7003;45932;50.658;3.022;2022-12-15T15:55:45;98.33;88.00;56.67
60058;PMS7003;45932;50.658;3.022;2022-12-15T15:58:12;96.00;85.33;54.00
60058;PMS7003;45932;50.658;3.022;2022-12-15T16:00:38;92.00;77.00;49.33
60058;PMS7003;45932;50.658;3.022;2022-12-15T16:03:04;106.33;101.00;66.33
60058;PMS7003;45932;50.658;3.022;2022-12-15T16:05:29;101.00;96.00;64.33
60058;PMS7003;45932;50.658;3.022;2022-12-15T16:07:55;109.67;93.33;60.00
60058;PMS7003;45932;50.658;3.022;2022-12-15T16:10:21;101.00;94.33;66.33
60058;PMS7003;45932;50.658;3.022;2022-12-15T16:12:47;113.67;103.00;64.33
60058;PMS7003;45932;50.658;3.022;2022-12-15T16:15:17;103.33;94.33;63.33